createdAt,value
2019-05-17T10:45:15.134Z,22.35
2019-05-17T10:47:50.262Z,22.90
2019-05-17T10:50:23.929Z,23.22
2019-05-17T10:53:00.198Z,23.05
2019-05-17T10:55:32.825Z,23.60
2019-05-17T10:58:06.273Z,22.32
2019-05-17T11:00:41.442Z,24.37
2019-05-17T11:03:15.152Z,25.48
2019-05-17T11:05:50.261Z,22.55
2019-05-17T11:08:23.613Z,22.82
2019-05-17T11:10:59.433Z,21.73
2019-05-17T11:13:32.135Z,24.18
2019-05-17T11:16:05.536Z,23.38
2019-05-17T11:18:38.892Z,22.80
2019-05-17T11:21:13.099Z,23.67
2019-05-17T11:23:46.482Z,23.07
2019-05-17T11:26:19.875Z,23.32
2019-05-17T11:28:53.227Z,20.82
2019-05-17T11:31:26.629Z,21.80
2019-05-17T11:34:00.142Z,21.07
2019-05-17T11:36:33.582Z,20.97
2019-05-17T11:39:08.559Z,21.77
2019-05-17T11:41:42.356Z,24.00
2019-05-17T11:44:15.970Z,23.83
2019-05-17T11:46:50.226Z,22.05
2019-05-17T11:49:24.460Z,22.90
2019-05-17T11:51:58.308Z,22.42
2019-05-17T11:54:31.939Z,22.10
2019-05-17T11:57:05.415Z,22.95
2019-05-17T11:59:38.859Z,22.98
2019-05-17T12:02:15.781Z,21.33
2019-05-17T12:04:49.260Z,20.95
2019-05-17T12:07:23.062Z,20.20
2019-05-17T12:09:57.469Z,19.52
2019-05-17T12:12:31.027Z,20.15
2019-05-17T12:15:04.510Z,19.62
2019-05-17T12:17:37.984Z,18.65
2019-05-17T12:20:14.422Z,18.32
2019-05-17T12:22:47.831Z,19.35
2019-05-17T12:25:21.432Z,20.15
2019-05-17T12:27:54.858Z,18.27
2019-05-17T12:30:28.275Z,18.32
2019-05-17T12:33:01.625Z,17.23
2019-05-17T12:35:35.023Z,17.27
2019-05-17T12:38:08.420Z,16.35
2019-05-17T12:40:41.868Z,20.95
2019-05-17T12:43:15.316Z,20.35
2019-05-17T12:46:00.112Z,20.57
2019-05-17T12:48:25.738Z,21.30
2019-05-17T12:50:59.181Z,20.45
2019-05-17T12:53:33.985Z,20.37
2019-05-17T12:56:07.506Z,20.17
2019-05-17T12:58:41.953Z,20.57
2019-05-17T13:01:15.376Z,20.50
2019-05-17T13:03:48.848Z,20.80
2019-05-17T13:06:23.729Z,22.62
2019-05-17T13:08:57.161Z,22.07
2019-05-17T13:11:30.591Z,21.87
2019-05-17T13:14:04.040Z,22.07
2019-05-17T13:16:37.505Z,22.52
2019-05-17T13:19:11.473Z,23.22
2019-05-17T13:21:45.108Z,23.02
2019-05-17T13:24:18.598Z,24.02
2019-05-17T13:26:52.127Z,84.45
2019-05-17T13:29:25.604Z,28.02
2019-05-17T13:31:59.067Z,24.20
2019-05-17T13:34:32.555Z,20.30
2019-05-17T13:37:06.276Z,20.57
2019-05-17T13:39:41.070Z,20.17
2019-05-17T13:42:14.477Z,20.50
2019-05-17T13:44:47.872Z,19.32
2019-05-17T13:47:21.311Z,20.77
2019-05-17T13:49:54.708Z,23.10
2019-05-17T13:52:28.135Z,20.50
2019-05-17T13:55:02.400Z,22.30
2019-05-17T13:57:36.115Z,21.70
2019-05-17T14:00:11.557Z,21.20
2019-05-17T14:02:44.978Z,18.67
2019-05-17T14:05:18.614Z,20.35
2019-05-17T14:07:52.234Z,19.17
2019-05-17T14:10:28.715Z,19.07
2019-05-17T14:13:00.726Z,19.12
2019-05-17T14:15:34.369Z,17.10
2019-05-17T14:18:08.441Z,16.30
2019-05-17T14:20:41.907Z,17.05
2019-05-17T14:23:15.344Z,17.23
2019-05-17T14:25:48.776Z,18.10
2019-05-17T14:28:22.258Z,17.00
2019-05-17T14:30:57.065Z,19.10
2019-05-17T14:33:31.577Z,16.93
2019-05-17T14:36:04.952Z,17.50
2019-05-17T14:38:38.453Z,17.25
2019-05-17T14:41:11.880Z,17.98
2019-05-17T14:43:45.317Z,17.42
2019-05-17T14:46:18.759Z,17.62
2019-05-17T14:48:52.267Z,17.10
2019-05-17T14:51:25.699Z,16.82
2019-05-17T14:53:59.158Z,15.60
2019-05-17T14:56:32.617Z,17.17
2019-05-17T14:59:06.431Z,15.15
2019-05-17T15:27:24.758Z,18.87
2019-05-17T15:29:58.231Z,19.67
2019-05-17T15:32:31.675Z,19.90
2019-05-17T15:35:05.672Z,18.10
2019-05-17T15:37:39.089Z,16.87
2019-05-17T15:40:12.753Z,16.82
2019-05-17T15:42:46.215Z,16.45
2019-05-17T15:45:20.050Z,19.00
2019-05-17T15:47:53.472Z,18.57
2019-05-17T15:50:26.943Z,17.95
2019-05-17T15:53:00.353Z,17.27
2019-05-17T15:55:33.759Z,16.57
2019-05-17T15:58:07.221Z,16.25
2019-05-17T16:00:40.760Z,15.83
2019-05-17T16:03:14.265Z,15.43
2019-05-17T16:05:47.718Z,14.87
2019-05-17T16:08:21.498Z,14.58
2019-05-17T16:10:54.924Z,15.55
2019-05-17T16:13:28.852Z,15.35
2019-05-17T16:16:02.297Z,16.12
2019-05-17T16:18:36.003Z,16.02
2019-05-17T16:21:09.581Z,15.00
2019-05-17T16:23:43.055Z,15.90
2019-05-17T16:26:16.487Z,16.45
2019-05-17T16:28:49.930Z,18.52
2019-05-17T16:31:23.386Z,16.75
2019-05-17T16:33:57.826Z,17.23
2019-05-17T16:36:31.252Z,15.58
2019-05-17T16:39:08.319Z,15.80
2019-05-17T16:41:40.724Z,16.75
2019-05-17T16:44:14.755Z,18.30
2019-05-17T16:46:51.821Z,16.25
2019-05-17T16:49:43.627Z,15.95
2019-05-17T16:52:17.826Z,16.82
2019-05-17T16:54:52.727Z,16.82
2019-05-17T16:57:26.493Z,16.02
2019-05-17T17:00:00.451Z,16.50
2019-05-17T17:02:34.027Z,18.80
2019-05-17T17:05:07.834Z,18.27
2019-05-17T17:07:41.249Z,18.15
2019-05-17T17:10:15.093Z,18.65
2019-05-17T17:12:48.797Z,19.62
2019-05-17T17:15:22.829Z,18.23
2019-05-17T17:17:56.262Z,17.73
2019-05-17T17:20:29.984Z,18.52
2019-05-17T17:23:03.448Z,17.65
2019-05-17T17:25:36.881Z,17.65
2019-05-17T17:28:10.288Z,18.10
2019-05-17T17:30:43.750Z,19.07
2019-05-17T17:33:17.603Z,19.45
2019-05-17T17:35:51.034Z,22.95
2019-05-17T17:38:24.462Z,22.65
2019-05-17T17:40:57.891Z,21.17
2019-05-17T17:43:31.337Z,25.00
2019-05-17T17:46:04.751Z,24.60
2019-05-17T17:48:38.150Z,26.05
2019-05-17T17:51:11.818Z,24.95
2019-05-17T17:53:45.235Z,23.98
2019-05-17T17:56:18.631Z,26.55
2019-05-17T17:58:53.048Z,25.52
2019-05-17T18:01:26.487Z,26.20
2019-05-17T18:03:59.937Z,28.32
2019-05-17T18:06:33.385Z,30.48
2019-05-17T18:09:07.690Z,38.50
2019-05-17T18:11:41.107Z,32.03
2019-05-17T18:14:14.569Z,31.05
2019-05-17T18:16:48.026Z,30.05
2019-05-17T18:19:21.649Z,30.92
2019-05-17T18:21:55.082Z,33.25
2019-05-17T18:24:28.472Z,35.30
2019-05-17T18:27:01.906Z,36.03
2019-05-17T18:29:35.315Z,35.03
2019-05-17T18:32:08.744Z,38.67
2019-05-17T18:34:42.847Z,38.80
2019-05-17T18:37:16.295Z,41.58
2019-05-17T18:39:49.710Z,42.50
2019-05-17T18:42:23.110Z,46.05
2019-05-17T18:44:56.594Z,45.92
2019-05-17T18:47:30.072Z,49.77
2019-05-17T18:50:03.515Z,48.38
2019-05-17T18:52:37.114Z,48.48
2019-05-17T18:55:10.606Z,47.53
2019-05-17T18:57:44.164Z,52.03
2019-05-17T19:00:18.547Z,49.30
2019-05-17T19:02:52.061Z,46.15
2019-05-17T19:05:25.504Z,45.67
2019-05-17T19:07:59.137Z,41.95
2019-05-17T19:10:32.619Z,41.37
2019-05-17T19:13:06.068Z,41.02
2019-05-17T19:15:39.507Z,39.15
2019-05-17T19:18:13.001Z,37.75
2019-05-17T19:20:47.524Z,38.30
2019-05-17T19:23:21.088Z,36.45
2019-05-17T19:25:54.538Z,41.95
2019-05-17T19:28:28.216Z,44.60
2019-05-17T19:31:04.068Z,46.23
2019-05-17T19:33:39.238Z,45.52
2019-05-17T19:36:12.835Z,44.40
2019-05-17T19:38:48.180Z,45.80
2019-05-17T19:41:21.660Z,45.15
2019-05-17T19:43:57.115Z,46.98
2019-05-17T19:46:30.549Z,49.48
2019-05-17T19:49:05.016Z,47.43
2019-05-17T19:51:38.494Z,47.73
2019-05-17T19:54:11.961Z,49.18
2019-05-17T19:56:45.332Z,52.98
2019-05-17T19:59:18.831Z,61.65
2019-05-17T20:01:52.286Z,59.30
2019-05-17T20:04:25.784Z,65.37
2019-05-17T20:06:59.162Z,58.05
2019-05-17T20:09:32.623Z,58.23
2019-05-17T20:12:06.094Z,58.17
2019-05-17T20:14:39.520Z,56.25
2019-05-17T20:17:12.973Z,55.98
2019-05-17T20:19:46.483Z,53.15
2019-05-17T20:22:19.933Z,47.98
2019-05-17T20:24:53.422Z,40.40
2019-05-17T20:27:26.913Z,42.33
2019-05-17T20:30:00.507Z,42.90
2019-05-17T20:32:35.461Z,41.98
2019-05-17T20:35:10.351Z,40.60
2019-05-17T20:37:43.754Z,38.58
2019-05-17T20:40:18.088Z,39.78
2019-05-17T20:42:51.512Z,37.93
2019-05-17T20:45:33.263Z,37.45
2019-05-17T20:48:10.083Z,36.70
2019-05-17T20:50:43.566Z,36.83
2019-05-17T20:53:19.216Z,37.45
2019-05-17T20:55:52.059Z,39.88
2019-05-17T20:58:25.493Z,36.23
2019-05-17T21:00:59.067Z,36.98
2019-05-17T21:03:32.431Z,37.08
2019-05-17T21:06:06.488Z,37.95
2019-05-17T21:08:46.002Z,37.95
2019-05-17T21:11:15.279Z,35.63
2019-05-17T21:13:48.723Z,36.55
2019-05-17T21:16:22.239Z,36.45
2019-05-17T21:18:55.659Z,37.05
2019-05-17T21:21:29.119Z,36.15
2019-05-17T21:24:02.615Z,40.20
2019-05-17T21:26:36.125Z,38.60
2019-05-17T21:29:09.535Z,38.80
2019-05-17T21:31:42.944Z,37.40
2019-05-17T21:34:16.325Z,39.25
2019-05-17T21:36:49.804Z,41.95
2019-05-17T21:39:24.253Z,36.53
2019-05-17T21:41:57.727Z,36.70
2019-05-17T21:44:31.107Z,38.30
2019-05-17T21:47:05.205Z,38.88
2019-05-17T21:49:38.749Z,39.40
2019-05-17T21:52:13.088Z,39.85
2019-05-17T21:54:46.590Z,37.10
2019-05-17T21:57:20.390Z,38.83
2019-05-17T21:59:53.830Z,40.28
2019-05-17T22:02:27.290Z,42.50
2019-05-17T22:05:00.718Z,38.70
2019-05-17T22:07:34.233Z,38.98
2019-05-17T22:10:07.819Z,39.27
2019-05-17T22:12:41.281Z,40.95
2019-05-17T22:15:15.768Z,46.33
2019-05-17T22:17:49.217Z,48.75
2019-05-17T22:20:22.677Z,47.05
2019-05-17T22:22:55.951Z,45.92
2019-05-17T22:25:29.343Z,46.73
2019-05-17T22:28:03.065Z,44.73
2019-05-17T22:30:36.426Z,40.05
2019-05-17T22:33:09.715Z,43.35
2019-05-17T22:35:43.064Z,38.17
2019-05-17T22:38:16.436Z,39.23
2019-05-17T22:40:49.740Z,39.78
2019-05-17T22:43:23.125Z,42.73
2019-05-17T22:45:56.328Z,43.55
2019-05-17T22:48:29.705Z,42.55
2019-05-17T22:51:03.030Z,41.68
2019-05-17T22:53:36.367Z,42.00
2019-05-17T22:56:09.837Z,40.98
2019-05-17T22:58:44.552Z,40.12
2019-05-17T23:01:17.793Z,37.53
2019-05-17T23:03:51.212Z,41.23
2019-05-17T23:06:24.600Z,40.25
2019-05-17T23:08:58.031Z,38.45
2019-05-17T23:11:31.242Z,41.95
2019-05-17T23:14:04.692Z,39.53
2019-05-17T23:16:50.581Z,38.80
2019-05-17T23:19:13.107Z,38.73
2019-05-17T23:21:46.393Z,37.73
2019-05-17T23:24:20.787Z,37.75
2019-05-17T23:26:54.158Z,39.35
2019-05-17T23:29:27.430Z,39.83
2019-05-17T23:32:00.708Z,39.33
2019-05-17T23:34:34.083Z,38.35
2019-05-17T23:37:07.882Z,40.33
2019-05-17T23:39:41.232Z,39.75
2019-05-17T23:42:14.501Z,37.13
2019-05-17T23:44:48.988Z,36.88
2019-05-17T23:47:22.333Z,35.83
2019-05-17T23:49:55.723Z,38.80
2019-05-17T23:52:29.075Z,38.95
2019-05-17T23:55:02.548Z,38.28
2019-05-17T23:57:35.992Z,37.63
